NEODyS-2

Near Earth Objects - Dynamic Site
NEODyS ∴ Observatories ∴ Site 691 ∴ Obs & residuals
Contact »
691  ▹ 
OBSERVATIONS AND RESIDUALS

691-Steward Observatory, Kitt Peak-Spacewatch

Detections | Residuals | Detections & Residuals

[1-200] [201-400] [401-600] [601-800] [801-1000] [1001-1200] [1201-1400] [1401-1600] [1601-1800] [1801-2000] [2001-2200] [2201-2400] [2401-2600] [2601-2800] [2801-3000] [3001-3200] [3201-3400] [3401-3600] [3601-3800] [3801-4000] [4001-4200] [4201-4400] [4401-4600] [4601-4800] [4801-5000] [5001-5200] [5201-5400] [5401-5600] [5601-5800] [5801-6000] [6001-6200] [6201-6400] [6401-6600] [6601-6800] [6801-7000] [7001-7200] [7201-7400] [7401-7600] [7601-7800] [7801-8000] [8001-8200] [8201-8400] [8401-8600] [8601-8800] [8801-9000] [9001-9200] [9201-9400] [9401-9600] [9601-9800] [9801-10000] [10001-10200] [10201-10400] [10401-10600] [10601-10800] [10801-11000] [11001-11200] [11201-11400] [11401-11600] [11601-11800] [11801-12000] [12001-12200] [12201-12400] [12401-12600] [12601-12800] [12801-13000] [13001-13200] [13201-13400] [13401-13600] [13601-13800] [13801-14000] [14001-14200] [14201-14400] [14401-14600] [14601-14800] [14801-15000] [15001-15200] [15201-15400] [15401-15600] [15601-15800] [15801-16000] [16001-16200] [16201-16400] [16401-16600] [16601-16800] [16801-17000] [17001-17200] [17201-17400] [17401-17600] [17601-17800] [17801-18000] [18001-18200] [18201-18400] [18401-18600] [18601-18800] [18801-19000] [19001-19200] [19201-19400] [19401-19600] [19601-19800] [19801-20000] [20001-20200] [20201-20400] [20401-20600] [20601-20800] [20801-21000] [21001-21200] [21201-21400] [21401-21600] [21601-21800] [21801-22000] [22001-22200] [22201-22400] [22401-22600] [22601-22800] [22801-23000] [23001-23200] [23201-23400] [23401-23600] [23601-23800] [23801-24000] [24001-24200] [24201-24400] [24401-24600] [24601-24800] [24801-25000] [25001-25200] [25201-25400] [25401-25600] [25601-25800] [25801-26000] [26001-26200] [26201-26400] [26401-26600] [26601-26800] [26801-27000] [27001-27200] [27201-27400] [27401-27600] [27601-27800] [27801-28000] [28001-28200] [28201-28400] [28401-28600] [28601-28800] [28801-29000] [29001-29200] [29201-29400] [29401-29600] [29601-29800] [29801-30000] [30001-30200] [30201-30400] [30401-30600] [30601-30800] [30801-31000] [31001-31200] [31201-31400] [31401-31600] [31601-31800] [31801-32000] [32001-32200] [32201-32400] [32401-32600] [32601-32800] [32801-33000] [33001-33200] [33201-33400] [33401-33600] [33601-33800] [33801-34000] [34001-34200] [34201-34400] [34401-34600] [34601-34800] [34801-35000] [35001-35200] [35201-35400] [35401-35600] [35601-35800] [35801-36000] [36001-36200] [36201-36400] [36401-36600] [36601-36800] [36801-37000] [37001-37200] [37201-37400] [37401-37600] [37601-37800] [37801-38000] [38001-38200] [38201-38400] [38401-38600] [38601-38800] [38801-39000] [39001-39200] [39201-39400] [39401-39600] [39601-39800] [39801-40000] [40001-40200] [40201-40400] [40401-40600] [40601-40800] [40801-41000] [41001-41200] [41201-41400] [41401-41600] [41601-41800] [41801-42000] [42001-42200] [42201-42400] [42401-42600] [42601-42800] [42801-43000] [43001-43200] [43201-43400] [43401-43600] [43601-43800] [43801-44000] [44001-44200] [44201-44400] [44401-44600] [44601-44800] [44801-45000] [45001-45200] [45201-45400] [45401-45600] [45601-45800] [45801-46000] [46001-46200] [46201-46400] [46401-46600] [46601-46800] [46801-47000] [47001-47200] [47201-47400] [47401-47600] [47601-47800] [47801-48000] [48001-48200] [48201-48400] [48401-48600] [48601-48800] [48801-49000] [49001-49200] [49201-49400] [49401-49600] [49601-49800] [49801-50000] [50001-50200] [50201-50388]

Designation T Tech N Date Right Ascension Declination Apparent Magnitude Star Catalog Site code χ Used A Used M
yr-mo-day precision hr:min:sec precision rms F bias residual deg min sec precision rms F bias residual mag/col rms residual
1992HF O c 1992-04-25.37738 1.000E-05 14:32:29.730 1.500E-01 0.735 F 1.435 -0.757 -12° 18' 32.50" 1.000E-01 0.735 F -1.002 0.968 19.3 V 0.70 0.55 i 691 1.69 Yes Yes
1991VG O c 1992-04-26.20485 1.000E-05 14:35:02.830 1.500E-01 0.794 F -0.032 -0.718 +07° 44' 26.60" 1.000E-01 0.794 F -0.567 0.282 i 691 1.01 Yes No
1991VG O c 1992-04-26.20955 1.000E-05 14:35:01.700 1.500E-01 0.794 F -0.032 -0.442 +07° 44' 19.90" 1.000E-01 0.794 F -0.567 0.105 i 691 0.59 Yes No
1991VG O c 1992-04-26.30565 1.000E-05 14:34:37.200 1.500E-01 0.794 F -0.117 0.308 +07° 42' 02.50" 1.000E-01 0.794 F -0.261 -0.162 i 691 0.45 Yes No
1991VG O c 1992-04-26.31046 1.000E-05 14:34:35.940 1.500E-01 0.794 F -0.117 0.294 +07° 41' 55.80" 1.000E-01 0.794 F -0.261 0.238 i 691 0.48 Yes No
1991VG O c 1992-04-26.36815 1.000E-05 14:34:20.940 1.500E-01 0.794 F -0.117 1.142 +07° 40' 28.40" 1.000E-01 0.794 F -0.261 -0.306 i 691 1.54 Yes No
1991VG O c 1992-04-26.37983 1.000E-05 14:34:17.850 1.500E-01 0.794 F -0.117 -0.047 +07° 40' 10.80" 1.000E-01 0.794 F -0.261 0.053 i 691 0.09 Yes No
1991VG O c 1992-04-26.42319 1.000E-05 14:34:06.940 1.500E-01 0.794 F -0.117 0.374 +07° 39' 03.00" 1.000E-01 0.794 F -0.261 -0.068 i 691 0.50 Yes No
1991VG O c 1992-04-27.19618 1.000E-05 14:31:56.230 1.500E-01 0.600 F 0.222 -0.260 +07° 19' 39.10" 1.000E-01 0.600 F -0.015 -0.264 21.9 V 0.70 -0.64 i 691 0.63 Yes Yes
1991VG O c 1992-04-27.27133 1.000E-05 14:31:37.540 1.500E-01 0.600 F 0.222 -0.242 +07° 17' 50.10" 1.000E-01 0.600 F -0.015 -0.244 i 691 0.59 Yes No
1992HF O c 1992-04-27.27940 1.000E-05 14:28:05.720 1.500E-01 0.600 F 0.514 -0.105 -11° 01' 59.60" 1.000E-01 0.600 F -0.397 0.222 19.7 V 0.70 1.12 i 691 0.41 Yes Yes
1991VG O c 1992-04-27.32809 1.000E-05 14:31:22.920 1.500E-01 0.600 F 0.258 -0.106 +07° 16' 24.70" 1.000E-01 0.600 F -0.077 -0.083 i 691 0.23 Yes No
1992HF O c 1992-04-27.32830 1.000E-05 14:27:58.210 1.500E-01 0.600 F 0.514 -0.216 -10° 59' 56.10" 1.000E-01 0.600 F -0.397 0.448 19.1 V 0.70 0.53 i 691 0.84 Yes Yes
1991VG O c 1992-04-27.44847 1.000E-05 14:30:52.930 1.500E-01 0.600 F 0.258 0.187 +07° 13' 14.50" 1.000E-01 0.600 F -0.077 0.036 i 691 0.34 Yes No
1992HF O c 1992-05-01.34576 1.000E-05 14:17:25.370 1.500E-01 0.600 F 0.502 1.117 -07° 55' 20.50" 1.000E-01 0.600 F 0.133 -0.430 19.4 V 0.70 0.86 i 691 2.04 Yes Yes
1992HF O c 1992-05-01.35252 1.000E-05 14:17:24.130 1.500E-01 0.600 F 0.502 0.613 -07° 54' 59.90" 1.000E-01 0.600 F 0.133 -0.115 19.6 V 0.70 1.06 i 691 1.06 Yes Yes
1992JD O c 1992-05-03.18660 1.000E-05 14:25:11.420 1.500E-01 0.995 F 0.879 0.177 -09° 32' 07.80" 1.000E-01 0.995 F -0.249 -0.016 i 691 0.19 Yes No
1992JD O c 1992-05-03.19577 1.000E-05 14:25:16.690 1.500E-01 0.995 F 0.879 -0.157 -09° 24' 39.90" 1.000E-01 0.995 F -0.249 -0.716 16.9 V 0.70 0.21 i 691 0.78 Yes Yes
1992JD O c 1992-05-03.20441 1.000E-05 14:25:21.590 1.500E-01 0.995 F 1.076 -0.721 -09° 17' 36.90" 1.000E-01 0.995 F -0.391 -0.179 i 691 0.79 Yes No
1992JD O c 1992-05-03.21465 1.000E-05 14:25:27.470 1.500E-01 0.995 F 1.076 0.983 -09° 09' 14.30" 1.000E-01 0.995 F -0.391 1.646 i 691 2.03 Yes No
1992JD O c 1992-05-03.22322 1.000E-05 14:25:32.200 1.500E-01 0.995 F 1.076 0.395 -09° 02' 16.70" 1.000E-01 0.995 F -0.391 0.220 i 691 0.48 Yes No
1992JD O c 1992-05-03.23191 1.000E-05 14:25:37.000 1.500E-01 0.995 F 1.076 0.545 -08° 55' 12.10" 1.000E-01 0.995 F -0.391 0.008 i 691 0.57 Yes No
1992JD O c 1992-05-03.26800 1.000E-05 14:25:56.530 1.500E-01 0.995 F 0.879 1.286 -08° 25' 48.00" 1.000E-01 0.995 F 0.083 0.396 i 691 1.40 Yes No
1992JD O c 1992-05-03.28842 1.000E-05 14:26:07.270 1.500E-01 0.995 F 0.446 0.291 -08° 09' 12.20" 1.000E-01 0.995 F 0.262 -0.737 i 691 0.83 Yes No
1992JD O c 1992-05-03.34139 1.000E-05 14:26:35.250 1.500E-01 0.995 F 0.446 0.145 -07° 26' 09.50" 1.000E-01 0.995 F 0.262 0.573 i 691 0.62 Yes No
1992JD O c 1992-05-03.35793 1.000E-05 14:26:44.040 1.500E-01 0.995 F -0.269 0.235 -07° 12' 47.10" 1.000E-01 0.995 F 0.205 -1.433 i 691 1.51 Yes No
1992JD O c 1992-05-03.42938 1.000E-05 14:27:23.720 1.500E-01 0.995 F -0.464 0.645 -06° 15' 01.60" 1.000E-01 0.995 F 0.075 0.898 i 691 1.16 Yes No
1992JD O c 1992-05-04.28404 1.000E-05 14:37:11.980 1.500E-01 0.735 F -0.322 -0.491 +04° 31' 09.40" 1.000E-01 0.735 F 0.146 -0.295 i 691 0.82 Yes No
1992JD O c 1992-05-04.31762 1.000E-05 14:37:26.700 1.500E-01 0.735 F -0.074 -0.479 +04° 54' 43.30" 1.000E-01 0.735 F 0.008 -0.554 17.2 V 0.70 -0.15 i 691 1.05 Yes Yes
1992JD O c 1992-05-04.33005 1.000E-05 14:37:32.150 1.500E-01 0.735 F -0.074 -0.358 +05° 03' 24.70" 1.000E-01 0.735 F 0.008 0.049 i 691 0.51 Yes No
1992HF O c 1992-05-04.37256 1.000E-05 14:08:23.000 1.500E-01 0.600 F -0.649 0.034 -05° 15' 02.00" 1.000E-01 0.600 F -0.122 -0.270 19.4 V 0.70 0.85 i 691 0.46 Yes Yes
1992HF O c 1992-05-04.38105 1.000E-05 14:08:21.360 1.500E-01 0.600 F -0.649 0.420 -05° 14' 33.40" 1.000E-01 0.600 F -0.122 -0.280 19.5 V 0.70 0.95 i 691 0.86 Yes Yes
1992HF O c 1992-05-04.38997 1.000E-05 14:08:19.590 1.500E-01 0.600 F -0.649 0.090 -05° 14' 03.00" 1.000E-01 0.600 F -0.122 0.045 19.5 V 0.70 0.95 i 691 0.17 Yes Yes
1992JD O c 1992-05-04.43226 1.000E-05 14:38:18.760 1.500E-01 0.735 F -0.245 -0.746 +06° 13' 50.30" 1.000E-01 0.735 F -0.292 1.532 i 691 2.48 Yes No
1992JD O c 1992-05-04.44072 1.000E-05 14:38:22.930 1.500E-01 0.735 F -0.245 -0.091 +06° 19' 32.60" 1.000E-01 0.735 F -0.292 -1.109 i 691 1.61 Yes No
1992JD O c 1992-05-04.44906 1.000E-05 14:38:27.090 1.500E-01 0.735 F -0.245 0.487 +06° 25' 11.90" 1.000E-01 0.735 F -0.292 -1.150 i 691 1.82 Yes No
1992JD O c 1992-05-06.22236 1.000E-05 14:54:38.810 1.500E-01 0.600 F 0.229 -0.601 +22° 59' 23.90" 1.000E-01 0.600 F -0.051 0.724 i 691 1.70 Yes No
1992JD O c 1992-05-06.22950 1.000E-05 14:54:41.200 1.500E-01 0.600 F 0.229 -0.060 +23° 02' 40.40" 1.000E-01 0.600 F -0.051 3.152 i 691 4.78 No No
1992JD O c 1992-05-06.23693 1.000E-05 14:54:43.570 1.500E-01 0.600 F 0.229 -0.738 +23° 05' 59.40" 1.000E-01 0.600 F -0.051 0.812 18.3 V 0.70 -0.06 i 691 1.97 Yes Yes
1992JD O c 1992-05-09.17281 1.000E-05 15:13:34.630 1.500E-01 0.600 F -0.059 -0.838 +38° 25' 01.00" 1.000E-01 0.600 F 0.636 -0.692 i 691 2.08 Yes No
1992JD O c 1992-05-09.17637 1.000E-05 15:13:35.630 1.500E-01 0.600 F -0.059 1.117 +38° 25' 49.40" 1.000E-01 0.600 F 0.636 -0.476 i 691 2.33 Yes No
1992HF O c 1992-05-09.19132 1.000E-05 13:52:08.860 1.500E-01 0.600 F -0.785 0.080 -00° 21' 47.10" 1.000E-01 0.600 F -0.366 -0.574 i 691 0.97 Yes No
1992HF O c 1992-05-09.19810 1.000E-05 13:52:07.330 1.500E-01 0.600 F -0.785 0.139 -00° 21' 20.00" 1.000E-01 0.600 F -0.366 -0.143 i 691 0.34 Yes No
1992JD O c 1992-05-09.38181 1.000E-05 15:14:16.200 1.500E-01 0.600 F -0.059 -0.037 +39° 09' 20.00" 1.000E-01 0.600 F 0.636 0.253 i 691 0.49 Yes No
1992JD O c 1992-05-09.38542 1.000E-05 15:14:17.000 1.500E-01 0.600 F -0.059 1.015 +39° 10' 02.50" 1.000E-01 0.600 F 0.636 0.054 i 691 1.93 Yes No
1992HF O c 1992-06-02.23668 1.000E-05 12:01:35.510 1.500E-01 0.600 F 0.247 -0.251 +30° 15' 11.60" 1.000E-01 0.600 F -0.092 0.144 20.3 V 0.70 1.04 i 691 0.50 Yes Yes
Toutatis O c 1992-06-02.42253 1.000E-05 20:39:11.350 1.500E-01 0.600 F -0.435 -0.147 -18° 08' 19.60" 1.000E-01 0.600 F 0.354 0.294 19.4 V 0.70 0.73 i 691 0.55 Yes Yes
Toutatis O c 1992-06-02.43766 1.000E-05 20:39:11.710 1.500E-01 0.600 F -0.435 -0.217 -18° 08' 18.80" 1.000E-01 0.600 F 0.354 -0.330 19.6 V 0.70 0.93 i 691 0.66 Yes Yes
Toutatis O c 1992-06-02.45274 1.000E-05 20:39:12.070 1.500E-01 0.600 F -0.435 -0.255 -18° 08' 17.10" 1.000E-01 0.600 F 0.354 -0.062 19.4 V 0.70 0.73 i 691 0.44 Yes Yes
2012SF51 O C 1992-09-23.25394 1.000E-05 23:52:56.730 1.500E-01 0.600 F -1.182 -0.353 -02° 25' 39.90" 1.000E-01 0.600 F -0.849 0.747 20.4 V 0.70 -0.21 i 691 1.38 Yes Yes
2012SF51 O C 1992-09-23.27210 1.000E-05 23:52:55.600 1.500E-01 0.600 F -1.182 -0.467 -02° 25' 44.60" 1.000E-01 0.600 F -0.849 0.370 i 691 0.99 Yes No
2012SF51 O C 1992-09-23.29628 1.000E-05 23:52:54.150 1.500E-01 0.600 F -1.182 0.209 -02° 25' 50.00" 1.000E-01 0.600 F -0.849 0.722 i 691 1.26 Yes No
1992SY O c 1992-09-27.32862 1.000E-05 00:19:06.550 1.500E-01 0.600 F -0.216 -0.300 +01° 36' 20.70" 1.000E-01 0.600 F -0.057 0.065 20.0 V 0.70 0.57 i 691 0.51 Yes Yes
1992SY O c 1992-09-27.34651 1.000E-05 00:19:04.900 1.500E-01 0.600 F -0.216 -0.107 +01° 36' 15.40" 1.000E-01 0.600 F -0.057 -0.350 20.0 V 0.70 0.57 i 691 0.61 Yes Yes
1992SY O c 1992-09-27.36566 1.000E-05 00:19:03.210 1.500E-01 0.600 F -0.216 1.222 +01° 36' 10.80" 1.000E-01 0.600 F -0.057 0.283 19.9 V 0.70 0.47 i 691 2.10 Yes Yes
1992SZ O c 1992-09-28.12020 1.000E-05 23:11:23.880 1.500E-01 0.600 F -0.686 0.125 -07° 55' 29.90" 1.000E-01 0.600 F -0.699 -0.202 19.0 V 0.70 0.16 i 691 0.41 Yes Yes
1992SZ O c 1992-09-28.14085 1.000E-05 23:11:24.160 1.500E-01 0.600 F -0.686 0.010 -07° 54' 38.80" 1.000E-01 0.600 F -0.699 0.110 18.9 V 0.70 0.06 i 691 0.19 Yes Yes
1992SZ O c 1992-09-28.16060 1.000E-05 23:11:24.420 1.500E-01 0.600 F -0.686 0.045 -07° 53' 50.30" 1.000E-01 0.600 F -0.699 0.020 18.9 V 0.70 0.06 i 691 0.09 Yes Yes
1992SY O c 1992-09-28.18434 1.000E-05 00:17:49.570 1.500E-01 0.735 F -0.064 0.199 +01° 32' 26.20" 1.000E-01 0.735 F 0.193 -0.001 20.0 V 0.70 0.57 i 691 0.27 Yes Yes
1992SY O c 1992-09-28.19229 1.000E-05 00:17:48.860 1.500E-01 0.735 F -0.064 0.668 +01° 32' 23.80" 1.000E-01 0.735 F 0.193 -0.216 20.0 V 0.70 0.57 i 691 0.96 Yes Yes
1992SY O c 1992-09-28.19967 1.000E-05 00:17:48.090 1.500E-01 0.735 F -0.064 -0.549 +01° 32' 21.50" 1.000E-01 0.735 F 0.193 -0.488 20.0 V 0.70 0.57 i 691 1.00 Yes Yes
1992SY O c 1992-09-28.40183 1.000E-05 00:17:29.100 1.500E-01 0.735 F -0.064 -0.640 +01° 31' 26.00" 1.000E-01 0.735 F 0.193 -0.213 20.0 V 0.70 0.56 i 691 0.92 Yes Yes
1992SY O c 1992-09-28.40925 1.000E-05 00:17:28.410 1.500E-01 0.735 F -0.064 -0.573 +01° 31' 24.10" 1.000E-01 0.735 F 0.193 -0.059 20.0 V 0.70 0.56 i 691 0.79 Yes Yes
1992SY O c 1992-09-28.41685 1.000E-05 00:17:27.720 1.500E-01 0.735 F -0.064 -0.263 +01° 31' 21.80" 1.000E-01 0.735 F 0.193 -0.254 20.0 V 0.70 0.56 i 691 0.50 Yes Yes
1992SZ O c 1992-09-29.18332 1.000E-05 23:11:47.080 1.500E-01 0.735 F -0.064 -0.270 -07° 12' 17.40" 1.000E-01 0.735 F -0.497 0.235 18.7 V 0.70 -0.20 i 691 0.50 Yes Yes
1992SZ O c 1992-09-29.19086 1.000E-05 23:11:47.160 1.500E-01 0.735 F -0.064 -0.571 -07° 11' 59.30" 1.000E-01 0.735 F -0.497 0.291 18.7 V 0.70 -0.20 i 691 0.89 Yes Yes
1992SZ O c 1992-09-29.19936 1.000E-05 23:11:47.300 1.500E-01 0.735 F -0.064 -0.145 -07° 11' 39.60" 1.000E-01 0.735 F -0.497 -0.355 18.6 V 0.70 -0.30 i 691 0.53 Yes Yes
1992SZ O c 1992-09-29.34240 1.000E-05 23:11:49.130 1.500E-01 0.735 F -0.064 -0.463 -07° 05' 56.00" 1.000E-01 0.735 F -0.497 0.292 18.7 V 0.70 -0.21 i 691 0.76 Yes Yes
1992SZ O c 1992-09-29.35018 1.000E-05 23:11:49.270 1.500E-01 0.735 F -0.064 -0.051 -07° 05' 38.00" 1.000E-01 0.735 F -0.497 -0.389 18.6 V 0.70 -0.31 i 691 0.55 Yes Yes
1992SZ O c 1992-09-29.35764 1.000E-05 23:11:49.340 1.500E-01 0.735 F -0.064 -0.646 -07° 05' 19.60" 1.000E-01 0.735 F -0.497 0.097 18.7 V 0.70 -0.21 i 691 0.91 Yes Yes
1992SY O c 1992-09-29.36449 1.000E-05 00:16:00.970 1.500E-01 0.600 F -0.064 -0.200 +01° 26' 59.10" 1.000E-01 0.600 F 0.193 0.016 20.2 V 0.70 0.71 i 691 0.34 Yes Yes
1992SY O c 1992-09-29.37175 1.000E-05 00:16:00.260 1.500E-01 0.600 F -0.064 -0.515 +01° 26' 57.00" 1.000E-01 0.600 F 0.193 -0.057 20.1 V 0.70 0.61 i 691 0.87 Yes Yes
1992SY O c 1992-09-29.37944 1.000E-05 00:15:59.510 1.500E-01 0.600 F -0.064 -0.823 +01° 26' 54.60" 1.000E-01 0.600 F 0.193 -0.309 20.2 V 0.70 0.71 i 691 1.47 Yes Yes
1992SZ O c 1992-09-30.35446 1.000E-05 23:12:13.280 1.500E-01 0.600 F -0.967 -0.143 -06° 26' 11.20" 1.000E-01 0.600 F 0.249 0.201 19.1 V 0.70 0.13 i 691 0.42 Yes Yes
1992SZ O c 1992-09-30.36273 1.000E-05 23:12:13.440 1.500E-01 0.600 F -0.967 0.196 -06° 25' 51.80" 1.000E-01 0.600 F 0.249 0.319 19.2 V 0.70 0.23 i 691 0.65 Yes Yes
1992TB O c 1992-10-02.13893 1.000E-05 23:24:35.010 1.500E-01 0.600 F -0.044 -1.197 +01° 38' 23.10" 1.000E-01 0.600 F 0.355 -0.858 19.5 V 0.70 0.47 i 691 2.46 Yes Yes
1992TB O c 1992-10-02.16059 1.000E-05 23:24:33.170 1.500E-01 0.600 F -0.044 -1.604 +01° 37' 47.40" 1.000E-01 0.600 F 0.355 -1.097 19.1 V 0.70 0.07 i 691 3.23 No Yes
1992TB O c 1992-10-02.18229 1.000E-05 23:24:31.350 1.500E-01 0.600 F -0.044 -1.594 +01° 37' 11.80" 1.000E-01 0.600 F 0.355 -1.175 19.3 V 0.70 0.27 i 691 3.29 No Yes
1992SY O c 1992-10-02.30980 1.000E-05 00:11:26.150 1.500E-01 0.600 F -0.020 0.756 +01° 13' 11.80" 1.000E-01 0.600 F 0.535 1.234 19.4 V 0.70 -0.18 i 691 2.42 Yes Yes
1992SY O c 1992-10-02.33859 1.000E-05 00:11:23.280 1.500E-01 0.600 F -0.020 -0.206 +01° 13' 02.10" 1.000E-01 0.600 F 0.535 -0.303 20.2 V 0.70 0.62 i 691 0.61 Yes Yes
1992SY O c 1992-10-02.36732 1.000E-05 00:11:20.490 1.500E-01 0.600 F 0.214 -0.361 +01° 12' 53.90" 1.000E-01 0.600 F 0.518 -0.335 20.0 V 0.70 0.42 i 691 0.83 Yes Yes
1992TB O c 1992-10-03.13313 1.000E-05 23:23:15.450 1.500E-01 0.600 F -0.286 -0.286 +01° 11' 25.10" 1.000E-01 0.600 F 0.146 -0.119 19.3 V 0.70 0.23 i 691 0.52 Yes Yes
1992TB O c 1992-10-03.14125 1.000E-05 23:23:14.790 1.500E-01 0.600 F -0.286 -0.259 +01° 11' 11.60" 1.000E-01 0.600 F 0.146 -0.491 19.4 V 0.70 0.33 i 691 0.93 Yes Yes
1992TB O c 1992-10-03.15181 1.000E-05 23:23:13.960 1.500E-01 0.600 F -0.286 0.216 +01° 10' 54.40" 1.000E-01 0.600 F 0.146 -0.620 19.2 V 0.70 0.13 i 691 1.10 Yes Yes
1992SZ O c 1992-10-03.16391 1.000E-05 23:13:30.130 1.500E-01 0.600 F -0.566 0.185 -04° 41' 55.90" 1.000E-01 0.600 F -0.083 -0.073 18.4 V 0.70 -0.74 i 691 0.34 Yes Yes
1992SZ O c 1992-10-03.17244 1.000E-05 23:13:30.310 1.500E-01 0.600 F -0.566 0.337 -04° 41' 37.90" 1.000E-01 0.600 F -0.083 -0.231 18.5 V 0.70 -0.64 i 691 0.70 Yes Yes
1992SZ O c 1992-10-03.18133 1.000E-05 23:13:30.470 1.500E-01 0.600 F -0.566 0.112 -04° 41' 19.00" 1.000E-01 0.600 F -0.083 -0.255 18.5 V 0.70 -0.64 i 691 0.48 Yes Yes
1992TB O c 1992-10-04.15548 1.000E-05 23:21:55.690 1.500E-01 0.794 F -0.603 -0.372 +00° 44' 03.40" 1.000E-01 0.794 F 0.311 0.012 19.4 V 0.70 0.28 i 691 0.47 Yes Yes
1992TB O C 1992-10-04.16664 1.000E-05 23:21:54.850 1.500E-01 0.794 F -0.388 0.136 +00° 43' 45.70" 1.000E-01 0.794 F 0.037 0.376 19.3 V 0.70 0.18 a 691 0.50 Yes Yes
1992TB O C 1992-10-04.17652 1.000E-05 23:21:54.040 1.500E-01 0.794 F -0.388 -0.206 +00° 43' 29.60" 1.000E-01 0.794 F 0.037 0.024 19.0 V 0.70 -0.12 a 691 0.26 Yes Yes
1992TB O C 1992-10-04.18692 1.000E-05 23:21:53.210 1.500E-01 0.794 F -0.388 -0.217 +00° 43' 13.50" 1.000E-01 0.794 F 0.037 0.498 19.3 V 0.70 0.18 a 691 0.69 Yes Yes
1992SY O c 1992-10-04.27581 1.000E-05 00:08:19.490 1.500E-01 0.600 F 0.344 -0.629 +01° 03' 53.60" 1.000E-01 0.600 F 0.320 0.818 19.9 V 0.70 0.28 i 691 1.72 Yes Yes
1992SY O c 1992-10-04.28601 1.000E-05 00:08:18.510 1.500E-01 0.600 F 0.344 -0.254 +01° 03' 50.20" 1.000E-01 0.600 F 0.320 0.310 20.0 V 0.70 0.38 i 691 0.67 Yes Yes
1992SY O c 1992-10-04.29582 1.000E-05 00:08:17.500 1.500E-01 0.600 F 0.344 -0.907 +01° 03' 47.50" 1.000E-01 0.600 F 0.320 0.392 19.9 V 0.70 0.28 i 691 1.65 Yes Yes
1992TB O c 1992-10-04.35792 1.000E-05 23:21:39.550 1.500E-01 0.794 F -0.603 -0.709 +00° 38' 41.40" 1.000E-01 0.794 F 0.311 0.344 19.3 V 0.70 0.18 i 691 0.99 Yes Yes
1992TB O c 1992-10-04.36770 1.000E-05 23:21:38.810 1.500E-01 0.794 F -0.603 -0.254 +00° 38' 26.20" 1.000E-01 0.794 F 0.311 0.694 19.2 V 0.70 0.08 i 691 0.93 Yes Yes
1992TB O c 1992-10-04.37907 1.000E-05 23:21:37.910 1.500E-01 0.794 F -0.603 -0.350 +00° 38' 08.20" 1.000E-01 0.794 F 0.311 0.771 19.4 V 0.70 0.28 i 691 1.07 Yes Yes
1992SZ O c 1992-10-05.34895 1.000E-05 23:14:34.610 1.500E-01 0.600 F -0.063 -0.025 -03° 26' 42.10" 1.000E-01 0.600 F -0.351 0.575 18.7 V 0.70 -0.58 i 691 0.99 Yes Yes
1992SZ O c 1992-10-05.35691 1.000E-05 23:14:34.800 1.500E-01 0.600 F -0.063 -0.129 -03° 26' 26.30" 1.000E-01 0.600 F -0.351 0.430 18.7 V 0.70 -0.58 i 691 0.77 Yes Yes
1992SZ O c 1992-10-05.36500 1.000E-05 23:14:35.010 1.500E-01 0.600 F -0.063 -0.023 -03° 26' 10.20" 1.000E-01 0.600 F -0.351 0.326 18.6 V 0.70 -0.68 i 691 0.56 Yes Yes
1992TB O c 1992-10-18.14389 1.000E-05 23:07:57.890 1.500E-01 0.600 F -0.300 -0.861 -04° 42' 37.20" 1.000E-01 0.600 F -0.226 -0.249 20.2 V 0.70 0.54 i 691 1.50 Yes Yes
1992TB O c 1992-10-18.15542 1.000E-05 23:07:57.400 1.500E-01 0.600 F -0.300 -0.461 -04° 42' 50.80" 1.000E-01 0.600 F -0.226 -0.156 20.0 V 0.70 0.34 i 691 0.81 Yes Yes
1992TB O c 1992-10-18.16317 1.000E-05 23:07:57.060 1.500E-01 0.600 F -0.300 -0.348 -04° 43' 00.20" 1.000E-01 0.600 F -0.226 -0.356 20.8 V 0.70 1.14 i 691 0.83 Yes Yes
1992SY O c 1992-10-18.17556 1.000E-05 23:46:34.440 1.500E-01 0.600 F -0.681 -0.702 +00° 03' 18.20" 1.000E-01 0.600 F -0.387 1.062 20.8 V 0.70 0.96 i 691 2.12 Yes Yes
1992SY O c 1992-10-18.18344 1.000E-05 23:46:33.730 1.500E-01 0.600 F -0.681 -0.534 +00° 03' 15.50" 1.000E-01 0.600 F -0.387 0.102 20.6 V 0.70 0.76 i 691 0.91 Yes Yes
1992SY O c 1992-10-18.19244 1.000E-05 23:46:32.960 1.500E-01 0.600 F -0.681 0.277 +00° 03' 13.50" 1.000E-01 0.600 F -0.387 0.088 21.1 V 0.70 1.26 i 691 0.49 Yes Yes
1992SZ O c 1992-10-18.21130 1.000E-05 23:23:20.270 1.500E-01 0.600 F 0.097 0.444 +02° 27' 28.50" 1.000E-01 0.600 F 0.469 -0.489 21.3 V 0.70 1.23 i 691 1.18 Yes Yes
1992SZ O c 1992-10-18.21917 1.000E-05 23:23:20.480 1.500E-01 0.600 F 0.097 -1.357 +02° 27' 37.20" 1.000E-01 0.600 F 0.469 -2.433 21.9 V 0.70 1.83 i 691 4.36 No Yes
1992SZ O c 1992-10-18.23225 1.000E-05 23:23:21.140 1.500E-01 0.600 F 0.097 0.299 +02° 27' 56.70" 1.000E-01 0.600 F 0.469 -0.615 20.9 V 0.70 0.83 i 691 1.22 Yes Yes
2001AE2 O C 1992-10-20.38745 1.000E-05 02:17:51.210 1.500E-01 0.600 F -0.102 0.411 +10° 22' 26.30" 1.000E-01 0.600 F 0.078 0.200 18.8 V 0.70 -0.10 a 691 0.77 Yes Yes
2001AE2 O C 1992-10-20.44228 1.000E-05 02:17:45.570 1.500E-01 0.600 F -0.102 0.485 +10° 21' 49.40" 1.000E-01 0.600 F 0.078 0.303 19.0 V 0.70 0.10 a 691 0.96 Yes Yes
2001AE2 O C 1992-10-20.46386 1.000E-05 02:17:43.380 1.500E-01 0.600 F -0.102 0.644 +10° 21' 35.00" 1.000E-01 0.600 F 0.078 0.543 19.2 V 0.70 0.30 a 691 1.42 Yes Yes
1992SY O c 1992-11-16.10564 1.000E-05 23:19:16.790 1.500E-01 0.600 F -0.180 1.381 -00° 17' 33.30" 1.000E-01 0.600 F -0.161 0.195 i 691 2.33 Yes No
1992SY O c 1992-11-16.12055 1.000E-05 23:19:16.410 1.500E-01 0.600 F -0.180 0.350 -00° 17' 31.30" 1.000E-01 0.600 F -0.161 -0.270 20.6 V 0.70 0.41 i 691 0.74 Yes Yes
1992SY O c 1992-11-16.13540 1.000E-05 23:19:16.140 1.500E-01 0.600 F -0.180 0.945 -00° 17' 28.60" 1.000E-01 0.600 F -0.161 -0.029 i 691 1.58 Yes No
1989ML O c 1992-11-19.46060 1.000E-05 05:08:21.990 1.500E-01 0.600 F -0.119 -0.049 +13° 13' 59.40" 1.000E-01 0.600 F -0.176 -0.302 19.2 V 0.70 0.16 i 691 0.51 Yes Yes
1989ML O c 1992-11-19.48657 1.000E-05 05:08:18.880 1.500E-01 0.600 F -0.119 0.412 +13° 14' 02.20" 1.000E-01 0.600 F -0.176 -0.418 19.3 V 0.70 0.26 i 691 0.98 Yes Yes
1989ML O c 1992-11-19.51301 1.000E-05 05:08:15.700 1.500E-01 0.600 F -0.119 0.360 +13° 14' 05.20" 1.000E-01 0.600 F -0.176 -0.313 19.2 V 0.70 0.16 i 691 0.80 Yes Yes
1989ML O c 1992-11-20.39413 1.000E-05 05:06:33.770 1.500E-01 0.671 F -0.119 -0.050 +13° 16' 05.00" 1.000E-01 0.671 F -0.176 0.136 19.4 V 0.70 0.40 i 691 0.22 Yes Yes
1989ML O c 1992-11-20.40260 1.000E-05 05:06:32.720 1.500E-01 0.671 F -0.119 0.104 +13° 16' 06.30" 1.000E-01 0.671 F -0.176 0.325 i 691 0.51 Yes No
1989ML O c 1992-11-20.41157 1.000E-05 05:06:31.600 1.500E-01 0.671 F -0.119 0.139 +13° 16' 07.50" 1.000E-01 0.671 F -0.176 0.360 i 691 0.58 Yes No
1989ML O c 1992-11-20.42679 1.000E-05 05:06:29.690 1.500E-01 0.671 F -0.119 0.017 +13° 16' 09.00" 1.000E-01 0.671 F -0.176 -0.090 19.8 V 0.70 0.80 i 691 0.14 Yes Yes
1989ML O c 1992-11-20.44319 1.000E-05 05:06:27.650 1.500E-01 0.671 F -0.119 0.082 +13° 16' 11.40" 1.000E-01 0.671 F -0.176 0.244 19.8 V 0.70 0.80 i 691 0.39 Yes Yes
1989ML O c 1992-11-21.24159 1.000E-05 05:04:54.140 1.500E-01 0.600 F -0.119 -0.211 +13° 18' 04.60" 1.000E-01 0.600 F -0.176 0.469 i 691 0.86 Yes No
1989ML O c 1992-11-21.24946 1.000E-05 05:04:53.140 1.500E-01 0.600 F -0.119 -0.334 +13° 18' 05.50" 1.000E-01 0.600 F -0.176 0.092 i 691 0.58 Yes No
1990VA O c 1992-11-23.31782 1.000E-05 04:51:59.330 1.500E-01 0.600 F -1.316 -0.278 -06° 05' 09.40" 1.000E-01 0.600 F 0.096 0.136 18.3 V 0.70 -0.58 i 691 0.53 Yes Yes
1990VA O c 1992-11-23.32377 1.000E-05 04:51:58.120 1.500E-01 0.600 F -1.316 -0.176 -06° 05' 23.20" 1.000E-01 0.600 F 0.096 0.623 18.2 V 0.70 -0.68 i 691 1.11 Yes Yes
1989ML O c 1992-11-24.24468 1.000E-05 04:58:43.680 1.500E-01 0.600 F -0.377 0.469 +13° 26' 04.10" 1.000E-01 0.600 F -0.138 -0.236 19.1 V 0.70 0.23 i 691 0.88 Yes Yes
1989ML O c 1992-11-24.25093 1.000E-05 04:58:42.820 1.500E-01 0.600 F -0.377 0.037 +13° 26' 05.60" 1.000E-01 0.600 F -0.138 0.086 19.2 V 0.70 0.33 i 691 0.16 Yes Yes
1989ML O c 1992-11-24.25495 1.000E-05 04:58:42.300 1.500E-01 0.600 F -0.377 0.252 +13° 26' 06.40" 1.000E-01 0.600 F -0.138 0.131 19.1 V 0.70 0.23 i 691 0.48 Yes Yes
2012UZ33 O C 1992-11-26.37645 1.000E-05 04:05:52.420 1.500E-01 0.600 F -0.113 0.507 +18° 08' 41.90" 1.000E-01 0.600 F -0.261 -0.625 21.1 V 0.70 0.36 a 691 1.40 Yes Yes
2012UZ33 O C 1992-11-26.40321 1.000E-05 04:05:49.600 1.500E-01 0.600 F -0.113 -0.332 +18° 08' 39.70" 1.000E-01 0.600 F -0.261 0.017 20.7 V 0.70 -0.04 a 691 0.65 Yes Yes
2012UZ33 O C 1992-11-26.42589 1.000E-05 04:05:47.310 1.500E-01 0.600 F -0.113 0.260 +18° 08' 36.60" 1.000E-01 0.600 F -0.261 -0.631 21.5 V 0.70 0.76 a 691 1.15 Yes Yes
1992SZ O c 1992-11-29.15560 1.000E-05 00:13:40.090 1.500E-01 0.600 F 0.171 -0.390 +12° 34' 09.20" 1.000E-01 0.600 F 0.153 0.348 22.7 V 0.70 0.49 i 691 1.16 Yes Yes
1992SZ O c 1992-11-29.16783 1.000E-05 00:13:41.180 1.500E-01 0.600 F 0.171 0.212 +12° 34' 16.80" 1.000E-01 0.600 F 0.153 0.482 22.5 V 0.70 0.28 i 691 1.12 Yes Yes
1989ML O c 1992-11-29.36383 1.000E-05 04:47:39.570 1.500E-01 0.600 F 0.172 -0.570 +13° 42' 52.00" 1.000E-01 0.600 F -0.163 0.235 19.3 V 0.70 0.58 i 691 1.04 Yes Yes
1989ML O c 1992-11-29.39130 1.000E-05 04:47:35.760 1.500E-01 0.600 F 0.172 -0.581 +13° 42' 57.30" 1.000E-01 0.600 F -0.163 -0.221 19.4 V 0.70 0.68 i 691 1.05 Yes Yes
Wilson-Harrington O c 1992-11-30.43426 1.000E-05 08:07:09.400 1.500E-01 0.600 F 0.047 0.018 +20° 14' 06.40" 1.000E-01 0.600 F 0.160 0.195 i 691 0.33 Yes No
Wilson-Harrington O c 1992-11-30.44242 1.000E-05 08:07:08.880 1.500E-01 0.600 F 0.047 0.096 +20° 14' 06.20" 1.000E-01 0.600 F 0.160 -0.048 i 691 0.19 Yes No
Wilson-Harrington O c 1992-11-30.45032 1.000E-05 08:07:08.370 1.500E-01 0.600 F 0.047 0.084 +20° 14' 06.10" 1.000E-01 0.600 F 0.160 -0.183 18.1 V 0.70 0.32 i 691 0.34 Yes Yes
1990VA O c 1992-12-01.34791 1.000E-05 04:26:00.720 1.500E-01 0.600 F -0.236 0.154 -10° 46' 07.90" 1.000E-01 0.600 F 0.492 -0.629 18.8 V 0.70 -0.23 i 691 1.11 Yes Yes
1990VA O c 1992-12-01.35581 1.000E-05 04:25:59.170 1.500E-01 0.600 F -0.236 0.484 -10° 46' 21.50" 1.000E-01 0.600 F 0.492 -0.353 i 691 1.03 Yes No
1990VA O c 1992-12-01.36327 1.000E-05 04:25:57.680 1.500E-01 0.600 F -0.236 0.386 -10° 46' 34.40" 1.000E-01 0.600 F 0.492 -0.164 i 691 0.72 Yes No
1989ML O c 1992-12-02.28114 1.000E-05 04:41:17.000 1.500E-01 0.600 F -0.656 -0.150 +13° 54' 06.50" 1.000E-01 0.600 F -0.166 0.350 i 691 0.64 Yes No
1989ML O c 1992-12-02.28911 1.000E-05 04:41:15.890 1.500E-01 0.600 F -0.656 -0.242 +13° 54' 08.30" 1.000E-01 0.600 F -0.166 0.183 18.0 V 0.70 -0.68 i 691 0.51 Yes Yes
1989ML O c 1992-12-02.29716 1.000E-05 04:41:14.780 1.500E-01 0.600 F -0.656 -0.168 +13° 54' 10.50" 1.000E-01 0.600 F -0.166 0.407 i 691 0.74 Yes No
1991AM O C 1992-12-02.47027 1.000E-05 10:02:30.910 1.500E-01 0.600 F -0.116 -0.025 +11° 05' 14.50" 1.000E-01 0.600 F -0.007 -0.068 20.3 V 0.70 -0.05 a 691 0.12 Yes Yes
1991AM O C 1992-12-02.47817 1.000E-05 10:02:31.150 1.500E-01 0.600 F -0.116 -0.429 +11° 05' 16.00" 1.000E-01 0.600 F -0.007 0.033 20.4 V 0.70 0.05 a 691 0.72 Yes Yes
1991AM O C 1992-12-02.48635 1.000E-05 10:02:31.440 1.500E-01 0.600 F -0.116 -0.232 +11° 05' 17.20" 1.000E-01 0.600 F -0.007 -0.214 21.1 V 0.70 0.75 a 691 0.53 Yes Yes
1989ML O c 1992-12-16.13844 1.000E-05 04:13:56.990 1.500E-01 0.600 F 0.423 -0.017 +15° 01' 55.00" 1.000E-01 0.600 F -0.251 0.464 i 691 0.78 Yes No
1989ML O c 1992-12-16.17986 1.000E-05 04:13:52.630 1.500E-01 0.600 F 0.423 -0.094 +15° 02' 08.50" 1.000E-01 0.600 F -0.251 -0.742 i 691 1.25 Yes No
1989ML O c 1992-12-16.21284 1.000E-05 04:13:49.130 1.500E-01 0.600 F 0.423 -0.279 +15° 02' 20.70" 1.000E-01 0.600 F -0.251 -0.073 19.3 V 0.70 0.06 i 691 0.49 Yes Yes
1989ML O c 1992-12-16.22580 1.000E-05 04:13:47.790 1.500E-01 0.600 F 0.423 0.198 +15° 02' 25.00" 1.000E-01 0.600 F -0.251 -0.257 i 691 0.54 Yes No
1992TB O c 1992-12-17.07524 1.000E-05 23:29:42.070 1.500E-01 0.600 F -0.709 1.272 -11° 31' 39.30" 1.000E-01 0.600 F 1.024 0.089 21.6 V 0.70 0.48 i 691 2.13 Yes Yes
1992TB O c 1992-12-17.08484 1.000E-05 23:29:42.580 1.500E-01 0.600 F -0.709 -0.441 -11° 31' 38.30" 1.000E-01 0.600 F 1.024 -0.097 21.8 V 0.70 0.68 i 691 0.75 Yes Yes
1992TB O c 1992-12-17.09975 1.000E-05 23:29:43.580 1.500E-01 0.600 F -0.709 -0.055 -11° 31' 36.10" 1.000E-01 0.600 F 1.024 0.252 21.6 V 0.70 0.48 i 691 0.43 Yes Yes
1992TB O c 1992-12-17.10959 1.000E-05 23:29:44.260 1.500E-01 0.600 F -0.709 0.487 -11° 31' 33.10" 1.000E-01 0.600 F 1.024 2.026 20.2 V 0.70 -0.92 i 691 3.47 No Yes
1992YD3 O c 1992-12-27.15257 1.000E-05 03:33:06.980 1.500E-01 1.273 F 0.198 -0.715 +15° 13' 39.60" 1.000E-01 1.273 F -0.274 -0.494 20.5 V 0.70 0.00 i 691 1.01 Yes Yes
1992YD3 O c 1992-12-27.17909 1.000E-05 03:33:21.880 1.500E-01 1.273 F 0.198 0.190 +14° 49' 51.40" 1.000E-01 1.273 F -0.274 0.903 i 691 0.85 Yes No
1992YD3 O c 1992-12-27.21010 1.000E-05 03:33:39.060 1.500E-01 1.273 F -0.095 0.487 +14° 22' 06.10" 1.000E-01 1.273 F 0.003 2.641 i 691 2.30 Yes No
1992YD3 O c 1992-12-27.21642 1.000E-05 03:33:42.580 1.500E-01 1.273 F -0.095 0.936 +14° 16' 21.20" 1.000E-01 1.273 F 0.003 -3.058 i 691 2.74 Yes No
1992YD3 O c 1992-12-27.22332 1.000E-05 03:33:46.290 1.500E-01 1.273 F -0.095 -0.478 +14° 10' 20.70" 1.000E-01 1.273 F 0.003 6.529 i 691 4.78 No No
1992YD3 O c 1992-12-27.24803 1.000E-05 03:33:59.980 1.500E-01 1.273 F -0.095 0.302 +13° 48' 10.90" 1.000E-01 1.273 F 0.003 -0.101 i 691 0.27 Yes No
1992YD3 O c 1992-12-27.26267 1.000E-05 03:34:08.050 1.500E-01 1.273 F -0.095 -0.099 +13° 35' 05.80" 1.000E-01 1.273 F 0.003 -2.936 i 691 2.50 Yes No
1992YD3 O c 1992-12-27.26940 1.000E-05 03:34:11.700 1.500E-01 1.273 F -0.095 -1.282 +13° 29' 10.60" 1.000E-01 1.273 F 0.003 1.032 i 691 1.39 Yes No
1990UQ O C 1992-12-27.27839 1.000E-05 03:32:32.570 1.500E-01 0.600 F -0.016 -0.271 +13° 15' 02.60" 1.000E-01 0.600 F 0.102 0.091 21.2 V 0.70 0.84 a 691 0.48 Yes Yes
1992YD3 O c 1992-12-27.27960 1.000E-05 03:34:17.440 1.500E-01 1.273 F -0.209 -0.124 +13° 20' 08.20" 1.000E-01 1.273 F 0.054 2.396 i 691 2.01 Yes No
1990UQ O C 1992-12-27.28501 1.000E-05 03:32:32.340 1.500E-01 0.600 F -0.016 -0.470 +13° 15' 03.30" 1.000E-01 0.600 F 0.102 -0.237 21.1 V 0.70 0.74 a 691 0.88 Yes Yes
1990UQ O C 1992-12-27.29161 1.000E-05 03:32:32.130 1.500E-01 0.600 F -0.016 -0.395 +13° 15' 04.60" 1.000E-01 0.600 F 0.102 0.041 20.8 V 0.70 0.44 a 691 0.66 Yes Yes
1992YD3 O c 1992-12-27.29291 1.000E-05 03:34:24.850 1.500E-01 1.273 F -0.209 -0.365 +13° 08' 15.60" 1.000E-01 1.273 F 0.054 -1.594 i 691 1.36 Yes No
1992YD3 O c 1992-12-27.30242 1.000E-05 03:34:30.200 1.500E-01 1.273 F -0.509 0.217 +12° 59' 53.00" 1.000E-01 1.273 F 0.030 1.406 i 691 1.18 Yes No
1992YD3 O c 1992-12-27.30854 1.000E-05 03:34:33.600 1.500E-01 1.273 F -0.509 -0.408 +12° 54' 29.10" 1.000E-01 1.273 F 0.030 2.533 i 691 2.12 Yes No
1992YD3 O c 1992-12-27.31463 1.000E-05 03:34:37.090 1.500E-01 1.273 F -0.509 0.380 +12° 49' 02.40" 1.000E-01 1.273 F 0.030 -0.995 i 691 0.89 Yes No
1992YD3 O c 1992-12-27.32527 1.000E-05 03:34:43.130 1.500E-01 1.273 F -0.509 0.530 +12° 39' 38.20" 1.000E-01 1.273 F 0.030 -1.208 i 691 1.13 Yes No
1992YD3 O c 1992-12-27.33151 1.000E-05 03:34:47.000 1.500E-01 1.273 F -0.509 5.172 +12° 34' 04.30" 1.000E-01 1.273 F 0.030 -4.734 i 691 5.04 No No
1992YD3 O c 1992-12-27.33759 1.000E-05 03:34:50.170 1.500E-01 1.273 F -0.509 0.715 +12° 28' 45.60" 1.000E-01 1.273 F 0.030 -1.811 i 691 1.77 Yes No
1992YD3 O c 1992-12-27.34717 1.000E-05 03:34:55.570 1.500E-01 1.273 F -0.509 -0.764 +12° 20' 22.50" 1.000E-01 1.273 F 0.030 1.287 i 691 1.52 Yes No
1992YD3 O c 1992-12-27.35896 1.000E-05 03:35:02.540 1.500E-01 1.273 F -0.381 1.353 +12° 09' 53.70" 1.000E-01 1.273 F 0.073 -5.564 i 691 3.52 No No
1993BD2 O c 1993-01-22.10551 1.000E-05 04:02:59.890 1.500E-01 0.600 F 0.209 -0.932 +19° 17' 22.10" 1.000E-01 0.600 F -0.109 -0.493 20.3 V 0.70 0.13 i 691 1.81 Yes Yes
1993BD2 O c 1993-01-22.11722 1.000E-05 04:02:59.600 1.500E-01 0.600 F 0.209 0.091 +19° 17' 42.00" 1.000E-01 0.600 F -0.109 0.125 20.4 V 0.70 0.23 i 691 0.27 Yes Yes
1993BD2 O c 1993-01-22.12563 1.000E-05 04:02:59.350 1.500E-01 0.600 F 0.209 0.235 +19° 17' 56.30" 1.000E-01 0.600 F -0.109 0.588 20.1 V 0.70 -0.07 i 691 1.09 Yes Yes
Bivoj O c 1993-01-22.22061 1.000E-05 06:24:16.320 1.500E-01 0.671 F -0.096 -0.699 +22° 22' 30.50" 1.000E-01 0.671 F -0.169 0.586 14.5 V 0.70 -0.20 i 691 1.39 Yes Yes
Bivoj O c 1993-01-22.22963 1.000E-05 06:24:20.720 1.500E-01 0.671 F -0.096 -0.073 +22° 21' 55.80" 1.000E-01 0.671 F -0.169 0.345 14.6 V 0.70 -0.10 i 691 0.54 Yes Yes
Bivoj O c 1993-01-22.24137 1.000E-05 06:24:26.450 1.500E-01 0.671 F -0.096 0.825 +22° 21' 10.60" 1.000E-01 0.671 F -0.169 0.161 14.7 V 0.70 0.00 i 691 1.28 Yes Yes
Bivoj O c 1993-01-22.24763 1.000E-05 06:24:29.430 1.500E-01 0.671 F -0.096 0.267 +22° 20' 46.60" 1.000E-01 0.671 F -0.169 0.241 14.7 V 0.70 0.00 i 691 0.55 Yes Yes
Bivoj O c 1993-01-22.25417 1.000E-05 06:24:32.540 1.500E-01 0.671 F -0.096 -0.364 +22° 20' 21.40" 1.000E-01 0.671 F -0.169 0.255 14.8 V 0.70 0.10 i 691 0.67 Yes Yes
1991AM O C 1993-01-22.46814 1.000E-05 09:52:31.020 1.500E-01 0.600 F 0.120 0.050 +21° 32' 00.50" 1.000E-01 0.600 F -0.077 0.425 18.3 V 0.70 0.06 a 691 0.71 Yes Yes
1991AM O C 1993-01-22.47639 1.000E-05 09:52:30.240 1.500E-01 0.600 F 0.120 -1.037 +21° 32' 12.90" 1.000E-01 0.600 F -0.077 0.579 17.8 V 0.70 -0.44 a 691 1.99 Yes Yes
1991AM O C 1993-01-22.48464 1.000E-05 09:52:29.630 1.500E-01 0.600 F 0.120 0.241 +21° 32' 25.20" 1.000E-01 0.600 F -0.077 0.637 18.5 V 0.70 0.26 a 691 1.14 Yes Yes
1993BD2 O c 1993-01-23.20429 1.000E-05 04:02:32.190 1.500E-01 0.600 F 0.381 -0.108 +19° 47' 24.70" 1.000E-01 0.600 F -0.533 0.506 20.9 V 0.70 0.71 i 691 0.87 Yes Yes
1993BD2 O c 1993-01-23.21255 1.000E-05 04:02:31.980 1.500E-01 0.600 F 0.381 0.032 +19° 47' 38.40" 1.000E-01 0.600 F -0.533 0.752 20.8 V 0.70 0.61 i 691 1.28 Yes Yes
1993BD2 O c 1993-01-23.22055 1.000E-05 04:02:31.750 1.500E-01 0.600 F 0.381 -0.222 +19° 47' 51.00" 1.000E-01 0.600 F -0.533 0.329 20.9 V 0.70 0.71 i 691 0.66 Yes Yes
1991AM O c 1993-01-23.42104 1.000E-05 09:51:10.940 1.500E-01 0.600 F 0.082 0.189 +21° 55' 57.00" 1.000E-01 0.600 F -0.594 0.457 18.3 V 0.70 0.11 i 691 0.83 Yes Yes
1991AM O c 1993-01-23.43875 1.000E-05 09:51:09.360 1.500E-01 0.600 F 0.082 0.160 +21° 56' 24.00" 1.000E-01 0.600 F -0.594 0.584 18.4 V 0.70 0.21 i 691 1.01 Yes Yes
1991AM O c 1993-01-23.45649 1.000E-05 09:51:07.780 1.500E-01 0.600 F 0.082 0.152 +21° 56' 50.80" 1.000E-01 0.600 F -0.594 0.488 18.4 V 0.70 0.21 i 691 0.85 Yes Yes
1993BD2 O c 1993-01-24.16234 1.000E-05 04:02:12.070 1.500E-01 0.600 F 0.381 0.046 +20° 13' 31.00" 1.000E-01 0.600 F -0.533 0.551 20.3 V 0.70 0.10 i 691 0.94 Yes Yes
1993BD2 O c 1993-01-24.17025 1.000E-05 04:02:11.950 1.500E-01 0.600 F 0.381 0.969 +20° 13' 43.60" 1.000E-01 0.600 F -0.533 0.274 20.1 V 0.70 -0.10 i 691 1.72 Yes Yes
1993BD2 O c 1993-01-24.17813 1.000E-05 04:02:11.710 1.500E-01 0.600 F 0.381 0.186 +20° 13' 56.40" 1.000E-01 0.600 F -0.533 0.254 20.5 V 0.70 0.30 i 691 0.54 Yes Yes
1991AM O c 1993-01-25.39042 1.000E-05 09:48:14.270 1.500E-01 0.600 F 0.371 -0.114 +22° 46' 52.80" 1.000E-01 0.600 F -0.244 -0.089 18.2 V 0.70 0.12 i 691 0.24 Yes Yes
1991AM O c 1993-01-25.40790 1.000E-05 09:48:12.600 1.500E-01 0.600 F 0.371 0.202 +22° 47' 20.40" 1.000E-01 0.600 F -0.244 -0.066 18.2 V 0.70 0.12 i 691 0.36 Yes Yes

[1-200] [201-400] [401-600] [601-800] [801-1000] [1001-1200] [1201-1400] [1401-1600] [1601-1800] [1801-2000] [2001-2200] [2201-2400] [2401-2600] [2601-2800] [2801-3000] [3001-3200] [3201-3400] [3401-3600] [3601-3800] [3801-4000] [4001-4200] [4201-4400] [4401-4600] [4601-4800] [4801-5000] [5001-5200] [5201-5400] [5401-5600] [5601-5800] [5801-6000] [6001-6200] [6201-6400] [6401-6600] [6601-6800] [6801-7000] [7001-7200] [7201-7400] [7401-7600] [7601-7800] [7801-8000] [8001-8200] [8201-8400] [8401-8600] [8601-8800] [8801-9000] [9001-9200] [9201-9400] [9401-9600] [9601-9800] [9801-10000] [10001-10200] [10201-10400] [10401-10600] [10601-10800] [10801-11000] [11001-11200] [11201-11400] [11401-11600] [11601-11800] [11801-12000] [12001-12200] [12201-12400] [12401-12600] [12601-12800] [12801-13000] [13001-13200] [13201-13400] [13401-13600] [13601-13800] [13801-14000] [14001-14200] [14201-14400] [14401-14600] [14601-14800] [14801-15000] [15001-15200] [15201-15400] [15401-15600] [15601-15800] [15801-16000] [16001-16200] [16201-16400] [16401-16600] [16601-16800] [16801-17000] [17001-17200] [17201-17400] [17401-17600] [17601-17800] [17801-18000] [18001-18200] [18201-18400] [18401-18600] [18601-18800] [18801-19000] [19001-19200] [19201-19400] [19401-19600] [19601-19800] [19801-20000] [20001-20200] [20201-20400] [20401-20600] [20601-20800] [20801-21000] [21001-21200] [21201-21400] [21401-21600] [21601-21800] [21801-22000] [22001-22200] [22201-22400] [22401-22600] [22601-22800] [22801-23000] [23001-23200] [23201-23400] [23401-23600] [23601-23800] [23801-24000] [24001-24200] [24201-24400] [24401-24600] [24601-24800] [24801-25000] [25001-25200] [25201-25400] [25401-25600] [25601-25800] [25801-26000] [26001-26200] [26201-26400] [26401-26600] [26601-26800] [26801-27000] [27001-27200] [27201-27400] [27401-27600] [27601-27800] [27801-28000] [28001-28200] [28201-28400] [28401-28600] [28601-28800] [28801-29000] [29001-29200] [29201-29400] [29401-29600] [29601-29800] [29801-30000] [30001-30200] [30201-30400] [30401-30600] [30601-30800] [30801-31000] [31001-31200] [31201-31400] [31401-31600] [31601-31800] [31801-32000] [32001-32200] [32201-32400] [32401-32600] [32601-32800] [32801-33000] [33001-33200] [33201-33400] [33401-33600] [33601-33800] [33801-34000] [34001-34200] [34201-34400] [34401-34600] [34601-34800] [34801-35000] [35001-35200] [35201-35400] [35401-35600] [35601-35800] [35801-36000] [36001-36200] [36201-36400] [36401-36600] [36601-36800] [36801-37000] [37001-37200] [37201-37400] [37401-37600] [37601-37800] [37801-38000] [38001-38200] [38201-38400] [38401-38600] [38601-38800] [38801-39000] [39001-39200] [39201-39400] [39401-39600] [39601-39800] [39801-40000] [40001-40200] [40201-40400] [40401-40600] [40601-40800] [40801-41000] [41001-41200] [41201-41400] [41401-41600] [41601-41800] [41801-42000] [42001-42200] [42201-42400] [42401-42600] [42601-42800] [42801-43000] [43001-43200] [43201-43400] [43401-43600] [43601-43800] [43801-44000] [44001-44200] [44201-44400] [44401-44600] [44601-44800] [44801-45000] [45001-45200] [45201-45400] [45401-45600] [45601-45800] [45801-46000] [46001-46200] [46201-46400] [46401-46600] [46601-46800] [46801-47000] [47001-47200] [47201-47400] [47401-47600] [47601-47800] [47801-48000] [48001-48200] [48201-48400] [48401-48600] [48601-48800] [48801-49000] [49001-49200] [49201-49400] [49401-49600] [49601-49800] [49801-50000] [50001-50200] [50201-50388]